Terminal Aerodrome Forecast
Issued by NWS Jackson, MS

Home | Current Version | Previous Version | Text Only | Print | Product List | Glossary On
Versions: 1 2 3 4 5 6 7 8 9 10 11 12 13 14 15
997
FTUS44 KJAN 270545
TAFGLH
TAF
KGLH 270545Z 2706/2806 15008KT P6SM SCT080 BKN100
     FM270700 18010KT P6SM BKN035
     FM271100 18011G18KT P6SM BKN025
     FM271300 18013G23KT P6SM BKN015
     FM271500 20012KT P6SM OVC025
     FM271900 21016G23KT P6SM -SHRA VCTS OVC035CB
     FM272200 21010KT P6SM VCTS BKN050CB=

USA.gov is the U.S. government's official web portal to all federal, state and local government web resources and services.